Time;durP1;ratioP1;P1;durP2;ratioP2;P2;SDS_P1;SDS_P2;PMS_P1;PMS_P2;Temp;Humidity;BMP_temperature;BMP_pressure;BME280_temperature;BME280_humidity;BME280_pressure;Samples;Min_cycle;Max_cycle;Signal;HPM_P1;HPM_P2
2022/03/26 00:00:06;;;;;;;46.20;22.55;;;;;;;7.11;53.23;102447.28;688195;28;1361;-93
2022/03/26 00:00:26;;;;;;;44.75;22.20;;;;;;;7.09;53.30;102456.66;693241;28;1276;-94
2022/03/26 00:00:47;;;;;;;42.00;21.60;;;;;;;7.11;53.54;102461.19;691717;28;1204;-94
2022/03/26 00:01:07;;;;;;;39.47;21.40;;;;;;;7.10;53.22;102454.19;688238;28;1155;-93
2022/03/26 00:01:28;;;;;;;35.80;20.65;;;;;;;7.06;53.36;102446.97;691030;28;1190;-94
2022/03/26 00:01:50;;;;;;;33.50;20.17;;;;;;;7.08;53.52;102454.88;690906;28;1773;-94
2022/03/26 00:02:10;;;;;;;34.45;20.42;;;;;;;7.06;53.40;102451.28;685521;28;1272;-94
2022/03/26 00:02:32;;;;;;;36.92;21.08;;;;;;;7.10;53.62;102463.66;699317;28;1182;-92
2022/03/26 00:02:54;;;;;;;38.90;21.52;;;;;;;7.09;53.82;102457.59;693756;28;1371;-94
2022/03/26 00:03:15;;;;;;;39.42;21.02;;;;;;;7.05;53.34;102454.69;685697;28;1249;-94
2022/03/26 00:03:36;;;;;;;38.53;21.38;;;;;;;7.04;53.32;102448.56;688253;28;1249;-94
2022/03/26 00:03:57;;;;;;;39.22;21.67;;;;;;;7.07;53.38;102458.28;685479;28;1340;-94
2022/03/26 00:04:18;;;;;;;39.33;22.15;;;;;;;7.02;53.57;102446.66;685608;28;1283;-95
2022/03/26 00:04:39;;;;;;;42.03;22.83;;;;;;;7.01;53.77;102447.44;693644;28;1299;-94
2022/03/26 00:04:59;;;;;;;43.22;23.00;;;;;;;6.94;53.69;102441.81;693715;28;1164;-93
2022/03/26 00:05:20;;;;;;;42.67;22.77;;;;;;;7.00;53.51;102449.13;688120;28;1161;-94
2022/03/26 00:05:41;;;;;;;41.53;21.87;;;;;;;7.02;53.58;102460.56;693707;28;1301;-93
2022/03/26 00:06:05;;;;;;;43.00;22.33;;;;;;;6.98;54.04;102445.53;693712;28;1404;-94
2022/03/26 00:06:25;;;;;;;43.28;23.15;;;;;;;7.03;53.86;102454.56;688310;28;1283;-94
2022/03/26 00:06:46;;;;;;;43.00;24.02;;;;;;;7.05;53.63;102455.56;688251;28;1278;-93
2022/03/26 00:07:06;;;;;;;40.93;23.80;;;;;;;7.07;53.87;102460.88;688274;28;1304;-93
2022/03/26 00:07:27;;;;;;;40.90;23.10;;;;;;;7.07;53.74;102453.97;690701;28;1359;-93
2022/03/26 00:07:48;;;;;;;41.78;22.63;;;;;;;7.09;53.78;102462.78;690952;28;1323;-94
2022/03/26 00:08:09;;;;;;;42.03;22.20;;;;;;;7.02;53.76;102450.16;685511;28;1320;-94
2022/03/26 00:08:29;;;;;;;42.33;22.90;;;;;;;7.05;54.13;102455.56;686497;28;1596;-94
2022/03/26 00:08:50;;;;;;;41.43;22.90;;;;;;;7.07;54.02;102461.75;695054;28;1258;-94
2022/03/26 00:09:11;;;;;;;43.03;23.55;;;;;;;7.05;53.97;102465.94;690197;28;1275;-93
2022/03/26 00:09:31;;;;;;;42.78;23.02;;;;;;;7.05;54.21;102459.88;695884;28;1241;-94
2022/03/26 00:09:52;;;;;;;42.50;22.80;;;;;;;7.08;54.22;102467.84;693636;28;1296;-94
2022/03/26 00:10:13;;;;;;;40.22;22.83;;;;;;;7.02;54.27;102460.56;693749;28;1318;-94
2022/03/26 00:10:34;;;;;;;40.80;22.85;;;;;;;7.02;54.30;102462.22;690742;28;1476;-94
2022/03/26 00:10:54;;;;;;;41.75;23.13;;;;;;;7.00;54.33;102462.09;691437;28;1477;-94
2022/03/26 00:11:15;;;;;;;42.33;22.83;;;;;;;7.02;54.31;102465.75;685484;28;1290;-94
2022/03/26 00:11:36;;;;;;;42.33;23.55;;;;;;;6.97;53.90;102459.31;692497;28;1472;-94
2022/03/26 00:11:57;;;;;;;40.87;22.67;;;;;;;6.99;54.44;102462.91;693388;28;1256;-94
2022/03/26 00:12:17;;;;;;;42.03;22.23;;;;;;;6.97;54.44;102460.22;693322;28;1277;-93
2022/03/26 00:12:39;;;;;;;41.72;22.00;;;;;;;6.97;54.09;102461.91;692286;28;1516;-94
2022/03/26 00:12:59;;;;;;;40.35;21.92;;;;;;;6.96;54.43;102462.72;688412;28;1260;-93
2022/03/26 00:13:20;;;;;;;36.97;21.80;;;;;;;6.97;54.44;102467.09;684799;28;1173;-94
2022/03/26 00:13:41;;;;;;;37.58;21.95;;;;;;;6.94;54.78;102466.91;682941;28;1293;-93
2022/03/26 00:14:02;;;;;;;39.10;22.00;;;;;;;6.88;54.35;102454.38;693320;28;1224;-94
2022/03/26 00:14:23;;;;;;;37.35;21.60;;;;;;;6.90;54.72;102454.47;684880;28;1331;-94
2022/03/26 00:14:43;;;;;;;33.40;20.25;;;;;;;6.85;54.45;102452.47;684626;28;1699;-95
2022/03/26 00:15:04;;;;;;;37.77;21.10;;;;;;;6.90;54.86;102462.28;685496;28;1252;-94
2022/03/26 00:15:25;;;;;;;40.90;21.30;;;;;;;6.89;54.71;102465.66;687553;28;1309;-93
2022/03/26 00:15:46;;;;;;;45.63;22.08;;;;;;;6.90;54.45;102467.47;687370;28;1269;-94
2022/03/26 00:16:06;;;;;;;43.28;22.00;;;;;;;6.88;54.38;102456.06;685441;28;1328;-94
2022/03/26 00:16:27;;;;;;;41.65;21.67;;;;;;;6.92;54.75;102471.06;685603;28;1331;-94
2022/03/26 00:16:47;;;;;;;40.37;22.33;;;;;;;6.89;54.68;102457.88;690106;28;1168;-94
2022/03/26 00:17:08;;;;;;;41.65;22.73;;;;;;;6.91;54.65;102470.16;693532;28;1206;-94
2022/03/26 00:17:31;;;;;;;41.97;22.80;;;;;;;6.83;54.53;102454.03;686390;28;1557;-94
2022/03/26 00:17:52;;;;;;;40.63;22.30;;;;;;;6.88;54.73;102463.88;684133;28;1207;-94
2022/03/26 00:18:12;;;;;;;42.93;22.53;;;;;;;6.87;54.61;102462.94;693823;28;1146;-94
2022/03/26 00:18:33;;;;;;;41.45;23.10;;;;;;;6.84;54.49;102455.88;693287;28;1374;-94
2022/03/26 00:18:53;;;;;;;41.08;22.80;;;;;;;6.82;54.88;102460.03;690273;28;1923;-94
2022/03/26 00:19:29;;;;;;;39.20;22.60;;;;;;;6.81;54.86;102458.22;693421;28;1295;-94
2022/03/26 00:20:11;;;;;;;43.35;22.48;;;;;;;6.73;54.88;102449.00;690445;28;1656;-94
2022/03/26 00:20:50;;;;;;;41.63;22.95;;;;;;;6.80;55.08;102464.22;686372;28;843;-94
2022/03/26 00:21:29;;;;;;;39.63;22.67;;;;;;;6.72;54.94;102455.00;685351;28;1256;-94
2022/03/26 00:22:06;;;;;;;44.65;22.65;;;;;;;6.76;55.13;102457.00;682908;29;1415;-94
2022/03/26 00:22:26;;;;;;;43.38;22.15;;;;;;;6.69;55.15;102444.38;690746;28;1270;-93
2022/03/26 00:22:47;;;;;;;39.83;22.00;;;;;;;6.73;55.13;102451.59;691387;28;1270;-94
2022/03/26 00:23:08;;;;;;;38.67;22.48;;;;;;;6.76;55.31;102457.00;689383;28;1593;-94
2022/03/26 00:23:28;;;;;;;38.73;23.00;;;;;;;6.65;55.00;102442.34;690491;28;1284;-94
2022/03/26 00:23:50;;;;;;;42.20;22.83;;;;;;;6.66;55.14;102449.31;686337;28;1200;-94
2022/03/26 00:24:10;;;;;;;43.40;22.88;;;;;;;6.67;55.02;102446.84;690856;28;1349;-94
2022/03/26 00:24:31;;;;;;;41.75;21.90;;;;;;;6.69;55.01;102445.25;693421;28;1112;-94
2022/03/26 00:24:52;;;;;;;41.88;22.30;;;;;;;6.69;55.43;102455.63;687995;28;1626;-93
2022/03/26 00:25:15;;;;;;;43.42;22.48;;;;;;;6.63;55.46;102442.22;693482;28;1195;-93
2022/03/26 00:25:37;;;;;;;42.95;22.10;;;;;;;6.72;55.25;102457.59;690730;28;1348;-95
2022/03/26 00:25:59;;;;;;;44.58;22.10;;;;;;;6.67;54.99;102446.84;693013;28;1332;-93
2022/03/26 00:26:20;;;;;;;46.72;23.13;;;;;;;6.68;55.55;102447.72;694814;28;1663;-94
2022/03/26 00:26:42;;;;;;;46.28;23.65;;;;;;;6.65;54.88;102438.06;701815;28;1265;-93
2022/03/26 00:27:03;;;;;;;44.40;22.77;;;;;;;6.71;54.96;102448.00;688244;28;1294;-94
2022/03/26 00:27:24;;;;;;;45.25;22.42;;;;;;;6.62;55.18;102439.53;685280;28;1274;-94
2022/03/26 00:27:44;;;;;;;45.20;23.05;;;;;;;6.56;55.30;102425.31;688471;28;1376;-93
2022/03/26 00:28:05;;;;;;;42.33;23.08;;;;;;;6.70;55.09;102451.38;688066;28;1249;-94
2022/03/26 00:28:28;;;;;;;40.03;22.77;;;;;;;6.64;55.15;102444.03;688020;28;1256;-93
2022/03/26 00:28:49;;;;;;;40.95;22.73;;;;;;;6.60;54.98;102438.50;688206;28;1036;-93
2022/03/26 00:29:09;;;;;;;42.47;23.90;;;;;;;6.60;55.19;102433.31;690820;28;1326;-94
2022/03/26 00:29:31;;;;;;;42.63;23.55;;;;;;;6.62;55.71;102436.94;690116;28;1548;-93
2022/03/26 00:29:52;;;;;;;46.08;24.33;;;;;;;6.65;55.41;102442.34;692065;28;1168;-94
2022/03/26 00:30:53;;;;;;;45.05;23.48;;;;;;;6.66;55.41;102444.13;693459;28;1165;-94
2022/03/26 00:31:13;;;;;;;44.47;22.00;;;;;;;6.52;55.32;102425.88;693268;28;1549;-93
2022/03/26 00:31:36;;;;;;;43.83;22.60;;;;;;;6.57;55.51;102440.09;690588;28;1126;-94
2022/03/26 00:31:57;;;;;;;41.67;22.90;;;;;;;6.57;55.74;102437.50;690689;28;1377;-94
2022/03/26 00:32:17;;;;;;;40.15;23.23;;;;;;;6.55;55.51;102441.69;685278;28;1415;-94
2022/03/26 00:32:38;;;;;;;40.70;23.15;;;;;;;6.57;55.46;102450.47;690163;28;1308;-94
2022/03/26 00:32:59;;;;;;;39.45;22.27;;;;;;;6.58;55.70;102444.50;695595;28;1336;-94
2022/03/26 00:33:20;;;;;;;40.47;21.83;;;;;;;6.55;55.87;102440.78;687072;28;1322;-94
2022/03/26 00:33:42;;;;;;;42.80;22.05;;;;;;;6.57;55.56;102445.28;688315;28;1816;-93
2022/03/26 00:34:02;;;;;;;43.90;22.15;;;;;;;6.56;55.76;102452.94;690664;28;1363;-93
2022/03/26 00:34:23;;;;;;;42.65;22.48;;;;;;;6.52;55.76;102446.63;687917;28;1201;-94
2022/03/26 00:34:43;;;;;;;40.33;22.70;;;;;;;6.52;55.51;102441.44;690782;28;1276;-94
2022/03/26 00:35:06;;;;;;;40.90;22.80;;;;;;;6.48;55.97;102439.44;693291;28;1124;-94
2022/03/26 00:35:27;;;;;;;41.55;22.92;;;;;;;6.49;55.95;102446.44;685218;28;1289;-94
2022/03/26 00:35:47;;;;;;;41.28;22.98;;;;;;;6.52;55.75;102448.34;688861;28;1267;-94
2022/03/26 00:36:08;;;;;;;41.23;23.20;;;;;;;6.47;55.58;102439.31;686938;28;1277;-94
2022/03/26 00:36:29;;;;;;;39.67;22.45;;;;;;;6.46;56.00;102443.63;685270;28;1158;-94
2022/03/26 00:36:49;;;;;;;37.45;21.23;;;;;;;6.48;56.12;102448.91;689126;28;1151;-94
2022/03/26 00:37:11;;;;;;;39.20;22.03;;;;;;;6.46;55.70;102446.22;693574;28;1237;-94
2022/03/26 00:37:32;;;;;;;42.92;23.46;;;;;;;6.45;56.13;102439.25;687909;28;1370;-94
2022/03/26 00:37:53;;;;;;;46.10;24.17;;;;;;;6.46;55.85;102446.22;685274;28;1221;-94
2022/03/26 00:38:13;;;;;;;45.17;23.55;;;;;;;6.43;56.12;102440.78;685356;28;1163;-94
2022/03/26 00:38:34;;;;;;;43.80;23.23;;;;;;;6.43;56.16;102452.09;686304;28;1738;-94
2022/03/26 00:38:55;;;;;;;42.40;23.38;;;;;;;6.47;55.87;102447.09;693342;28;1902;-94
2022/03/26 00:39:15;;;;;;;43.77;23.90;;;;;;;6.44;55.88;102442.59;690890;28;1257;-94
2022/03/26 00:39:38;;;;;;;41.80;23.55;;;;;;;6.44;56.32;102453.88;687758;28;1198;-94
2022/03/26 00:39:59;;;;;;;41.55;23.27;;;;;;;6.46;56.24;102447.91;682881;28;1228;-94
2022/03/26 00:40:19;;;;;;;42.67;22.95;;;;;;;6.41;56.31;102442.38;685377;28;1223;-94
2022/03/26 00:40:41;;;;;;;42.73;22.73;;;;;;;6.47;56.01;102458.41;682699;28;1721;-94
2022/03/26 00:41:03;;;;;;;42.08;21.88;;;;;;;6.45;56.15;102444.44;682730;29;1404;-93
2022/03/26 00:41:23;;;;;;;41.33;22.77;;;;;;;6.38;56.23;102437.88;688056;28;1283;-93
2022/03/26 00:41:44;;;;;;;42.70;22.77;;;;;;;6.38;56.03;102439.59;690619;28;1215;-93
2022/03/26 00:42:10;;;;;;;42.85;23.40;;;;;;;6.47;56.13;102450.63;688108;28;1253;-94
2022/03/26 00:42:30;;;;;;;42.03;22.95;;;;;;;6.47;56.07;102454.88;690769;28;1172;-94
2022/03/26 00:42:51;;;;;;;46.38;23.60;;;;;;;6.44;55.98;102452.97;690246;28;1274;-94
2022/03/26 00:43:12;;;;;;;49.60;24.17;;;;;;;6.43;56.26;102456.34;688038;28;1320;-94
2022/03/26 00:43:32;;;;;;;49.00;24.30;;;;;;;6.38;56.09;102449.97;685309;28;1261;-94
2022/03/26 00:43:53;;;;;;;42.90;23.15;;;;;;;6.39;55.91;102446.56;685940;28;1274;-94
2022/03/26 00:44:16;;;;;;;39.72;22.90;;;;;;;6.38;55.97;102457.75;685522;28;1245;-94
2022/03/26 00:44:38;;;;;;;39.85;23.02;;;;;;;6.39;56.18;102450.03;690916;28;1204;-94
2022/03/26 00:45:15;;;;;;;40.95;23.58;;;;;;;6.41;56.23;102465.72;690446;28;1284;-94
2022/03/26 00:45:36;;;;;;;43.78;23.90;;;;;;;6.34;56.10;102454.03;690326;28;1562;-93
2022/03/26 00:45:57;;;;;;;45.53;23.60;;;;;;;6.34;56.47;102456.63;690642;28;1245;-94
2022/03/26 00:46:18;;;;;;;45.03;23.33;;;;;;;6.31;56.41;102446.00;695835;28;1280;-94
2022/03/26 00:46:38;;;;;;;45.50;23.63;;;;;;;6.32;56.11;102457.28;685429;28;1512;-94
2022/03/26 00:46:59;;;;;;;43.93;23.60;;;;;;;6.31;56.40;102458.97;693170;28;1284;-94
2022/03/26 00:47:19;;;;;;;44.47;24.02;;;;;;;6.30;56.33;102460.69;687865;28;1245;-93
2022/03/26 00:47:40;;;;;;;44.03;23.97;;;;;;;6.27;56.26;102460.44;690948;28;1184;-94
2022/03/26 00:48:01;;;;;;;45.75;24.52;;;;;;;6.21;56.56;102447.03;685008;28;1254;-94
2022/03/26 00:48:23;;;;;;;44.67;24.45;;;;;;;6.23;56.68;102449.72;687914;28;1318;-94
2022/03/26 00:48:44;;;;;;;43.40;23.98;;;;;;;6.23;56.48;102460.09;688154;28;1539;-94
2022/03/26 00:49:04;;;;;;;44.65;24.02;;;;;;;6.17;56.63;102447.59;685500;28;1252;-94
2022/03/26 00:49:25;;;;;;;46.00;23.42;;;;;;;6.21;56.75;102459.09;690560;28;1698;-93
2022/03/26 00:49:45;;;;;;;44.07;23.13;;;;;;;6.20;56.57;102460.78;690086;28;1168;-93
2022/03/26 00:50:07;;;;;;;42.37;22.80;;;;;;;6.21;56.69;102448.72;687943;28;1158;-94
2022/03/26 00:50:28;;;;;;;41.45;22.45;;;;;;;6.23;56.86;102466.19;688143;28;1291;-94
2022/03/26 00:50:49;;;;;;;43.70;23.30;;;;;;;6.24;56.60;102462.81;685378;28;1398;-93
2022/03/26 00:51:09;;;;;;;43.53;23.47;;;;;;;6.20;56.40;102463.34;685223;28;1216;-94
2022/03/26 00:51:30;;;;;;;43.90;24.20;;;;;;;6.16;56.59;102453.56;685454;28;1304;-94
2022/03/26 00:51:51;;;;;;;42.17;23.83;;;;;;;6.25;56.91;102462.03;691973;28;1208;-94
2022/03/26 00:52:12;;;;;;;44.05;23.77;;;;;;;6.20;56.95;102458.19;696201;28;1421;-93
2022/03/26 00:52:32;;;;;;;42.13;23.00;;;;;;;6.25;56.67;102462.03;685543;28;1794;-93
2022/03/26 00:52:53;;;;;;;40.27;22.87;;;;;;;6.22;56.94;102456.63;682796;28;1328;-94
2022/03/26 00:53:14;;;;;;;41.70;23.37;;;;;;;6.21;57.01;102456.50;685529;28;1232;-95
2022/03/26 00:53:34;;;;;;;43.60;24.15;;;;;;;6.22;56.89;102460.88;687919;28;1193;-93
2022/03/26 00:53:55;;;;;;;47.75;24.77;;;;;;;6.19;56.94;102456.38;685163;28;1238;-94
2022/03/26 00:54:15;;;;;;;44.00;23.93;;;;;;;6.20;57.24;102465.94;688032;28;1199;-93
2022/03/26 00:54:36;;;;;;;45.03;23.55;;;;;;;6.19;57.21;102458.09;692203;28;1238;-94
2022/03/26 00:54:57;;;;;;;45.78;23.42;;;;;;;6.17;56.82;102463.16;692823;28;1192;-94
2022/03/26 00:55:17;;;;;;;45.17;23.20;;;;;;;6.14;57.04;102458.63;687386;28;1266;-93
2022/03/26 00:55:38;;;;;;;43.45;23.30;;;;;;;6.21;57.01;102465.19;684855;28;1176;-94
2022/03/26 00:55:58;;;;;;;41.90;22.73;;;;;;;6.21;57.08;102470.38;688109;28;1231;-93
2022/03/26 00:56:19;;;;;;;43.43;23.27;;;;;;;6.10;57.21;102453.13;687883;28;1209;-93
2022/03/26 00:56:41;;;;;;;42.60;22.67;;;;;;;6.14;57.22;102468.13;687852;28;1247;-93
2022/03/26 00:57:01;;;;;;;39.85;22.73;;;;;;;6.15;57.13;102459.56;684778;28;1184;-94
2022/03/26 00:57:22;;;;;;;37.60;22.07;;;;;;;6.13;57.05;102474.06;682679;29;1250;-93
2022/03/26 00:57:43;;;;;;;39.13;22.63;;;;;;;6.14;57.14;102471.59;685242;28;1205;-94
2022/03/26 00:58:04;;;;;;;40.13;22.85;;;;;;;6.10;57.64;102467.00;685455;28;1191;-93
2022/03/26 00:58:25;;;;;;;42.70;22.92;;;;;;;6.10;57.22;102472.19;687817;28;1260;-94
2022/03/26 00:58:45;;;;;;;43.47;23.50;;;;;;;6.06;57.12;102454.59;690690;28;1987;-94
2022/03/26 00:59:07;;;;;;;45.13;23.48;;;;;;;6.12;57.20;102467.09;688076;28;1226;-94
2022/03/26 00:59:27;;;;;;;46.55;23.70;;;;;;;6.12;57.33;102469.66;687825;28;1261;-93
2022/03/26 00:59:48;;;;;;;44.88;23.13;;;;;;;6.06;57.27;102456.28;685702;28;1191;-94
2022/03/26 01:00:10;;;;;;;43.57;23.10;;;;;;;6.07;57.34;102465.88;685321;28;1237;-94
2022/03/26 01:00:30;;;;;;;43.08;23.20;;;;;;;6.09;57.39;102469.47;687533;28;1821;-93
2022/03/26 01:00:51;;;;;;;43.20;22.87;;;;;;;6.10;57.17;102466.06;689402;28;1304;-93
2022/03/26 01:01:12;;;;;;;42.28;22.75;;;;;;;6.11;57.49;102479.16;690579;28;1268;-94
2022/03/26 01:01:34;;;;;;;40.10;22.63;;;;;;;6.06;57.69;102462.34;690332;28;1215;-94
2022/03/26 01:01:54;;;;;;;40.83;23.10;;;;;;;6.01;57.27;102454.25;693315;28;1448;-93
2022/03/26 01:02:16;;;;;;;43.00;23.27;;;;;;;6.09;57.51;102474.66;690730;28;1168;-94
2022/03/26 01:02:36;;;;;;;46.63;23.88;;;;;;;6.10;57.73;102474.78;686728;28;1286;-94
2022/03/26 01:02:58;;;;;;;47.87;24.13;;;;;;;6.06;57.71;102469.25;688621;28;1169;-94
2022/03/26 01:03:18;;;;;;;43.88;23.38;;;;;;;6.03;57.85;102469.91;690549;28;1342;-93
2022/03/26 01:03:39;;;;;;;39.53;22.90;;;;;;;6.06;57.87;102474.44;688161;28;1277;-93
2022/03/26 01:04:01;;;;;;;37.73;22.53;;;;;;;5.98;57.76;102464.41;690429;28;1273;-94
2022/03/26 01:04:21;;;;;;;41.08;23.67;;;;;;;6.05;57.88;102475.19;682576;29;1259;-93
2022/03/26 01:04:42;;;;;;;41.28;23.38;;;;;;;6.03;57.66;102478.56;682805;28;1130;-93
2022/03/26 01:05:04;;;;;;;45.47;23.33;;;;;;;6.00;57.84;102461.91;688123;28;1255;-94
2022/03/26 01:05:24;;;;;;;44.05;22.65;;;;;;;5.97;57.77;102467.78;688163;28;1483;-93
2022/03/26 01:05:45;;;;;;;44.38;22.60;;;;;;;6.01;57.60;102466.28;688358;28;1294;-94
2022/03/26 01:06:05;;;;;;;40.85;23.05;;;;;;;5.98;57.58;102464.41;688101;28;1194;-95
2022/03/26 01:06:26;;;;;;;41.83;24.17;;;;;;;5.96;57.78;102465.06;682555;29;1166;-92
2022/03/26 01:06:47;;;;;;;41.80;24.48;;;;;;;5.95;57.86;102460.69;690607;28;1294;-94
2022/03/26 01:07:07;;;;;;;41.63;23.85;;;;;;;5.97;57.67;102465.19;688245;28;1183;-94
2022/03/26 01:07:28;;;;;;;42.03;22.67;;;;;;;5.97;57.71;102469.47;688083;28;1221;-94
2022/03/26 01:07:49;;;;;;;42.57;23.30;;;;;;;5.98;57.86;102463.47;686387;28;1241;-93
2022/03/26 01:08:09;;;;;;;42.22;22.55;;;;;;;5.95;57.61;102469.34;690809;28;1279;-94
2022/03/26 01:08:31;;;;;;;40.80;22.37;;;;;;;5.96;57.59;102471.13;688378;28;1772;-93
2022/03/26 01:08:52;;;;;;;40.35;21.67;;;;;;;5.96;58.16;102462.47;690745;28;1272;-93
2022/03/26 01:09:13;;;;;;;44.10;22.52;;;;;;;5.93;57.97;102468.31;690633;28;1193;-94
2022/03/26 01:09:34;;;;;;;44.50;22.57;;;;;;;5.96;57.76;102468.53;687683;28;1157;-94
2022/03/26 01:09:54;;;;;;;42.97;22.30;;;;;;;5.95;57.82;102468.44;692233;28;1236;-94
2022/03/26 01:10:15;;;;;;;39.17;22.70;;;;;;;5.92;58.05;102463.94;690713;28;1225;-93
2022/03/26 01:10:36;;;;;;;40.77;22.83;;;;;;;5.93;58.02;102465.72;685563;28;1206;-94
2022/03/26 01:10:57;;;;;;;43.27;23.33;;;;;;;5.94;57.89;102470.13;684967;28;1222;-94
2022/03/26 01:11:18;;;;;;;45.80;22.92;;;;;;;5.90;57.97;102462.94;688088;28;1309;-93
2022/03/26 01:11:39;;;;;;;46.55;23.15;;;;;;;5.95;58.21;102482.28;691827;28;1579;-93
2022/03/26 01:11:59;;;;;;;44.88;22.83;;;;;;;5.93;57.99;102478.69;696023;28;1252;-93
2022/03/26 01:12:21;;;;;;;41.17;22.80;;;;;;;5.89;57.98;102476.63;692778;28;1194;-93
2022/03/26 01:12:41;;;;;;;40.08;22.15;;;;;;;5.93;58.10;102476.09;690777;28;1284;-93
2022/03/26 01:13:03;;;;;;;39.78;21.92;;;;;;;5.92;58.04;102476.88;688100;28;1164;-93
2022/03/26 01:13:25;;;;;;;41.65;21.80;;;;;;;5.88;58.24;102464.47;688201;28;1267;-94
2022/03/26 01:13:47;;;;;;;44.95;22.40;;;;;;;5.88;57.93;102469.66;690711;28;1266;-93
2022/03/26 01:14:07;;;;;;;44.33;22.70;;;;;;;5.91;57.80;102482.88;691604;28;1322;-94
2022/03/26 01:14:28;;;;;;;45.65;22.60;;;;;;;5.94;57.80;102483.09;688100;28;1181;-96
2022/03/26 01:14:50;;;;;;;41.40;21.87;;;;;;;5.89;58.00;102467.19;688992;28;1178;-96
2022/03/26 01:15:11;;;;;;;40.97;21.45;;;;;;;5.89;57.77;102471.47;685411;28;1335;-96
2022/03/26 01:15:32;;;;;;;38.35;21.90;;;;;;;5.94;57.82;102479.59;685322;28;1198;-95
2022/03/26 01:15:52;;;;;;;38.70;22.33;;;;;;;5.90;57.63;102468.09;685357;28;1121;-95
2022/03/26 01:16:14;;;;;;;38.50;22.55;;;;;;;5.83;57.76;102461.53;688121;28;1364;-95
2022/03/26 01:16:35;;;;;;;39.50;22.23;;;;;;;5.86;57.95;102460.88;685378;28;1271;-95
2022/03/26 01:16:56;;;;;;;40.35;22.08;;;;;;;5.89;57.94;102466.28;690825;28;1322;-95
2022/03/26 01:17:17;;;;;;;41.95;22.15;;;;;;;5.88;57.69;102469.66;691622;28;1721;-95
2022/03/26 01:17:39;;;;;;;42.50;22.52;;;;;;;5.86;57.58;102466.06;690867;28;1760;-95
2022/03/26 01:17:59;;;;;;;40.72;22.27;;;;;;;5.85;57.69;102466.84;693035;28;1174;-96
2022/03/26 01:18:20;;;;;;;41.80;22.13;;;;;;;5.86;57.87;102471.25;687545;28;1273;-95
2022/03/26 01:18:42;;;;;;;42.65;21.30;;;;;;;5.88;57.83;102470.56;687981;28;1806;-95
2022/03/26 01:19:02;;;;;;;46.92;21.80;;;;;;;5.85;58.07;102472.03;692900;28;1566;-96
2022/03/26 01:19:23;;;;;;;45.97;21.55;;;;;;;5.85;58.20;102469.44;687458;28;1152;-96
2022/03/26 01:19:44;;;;;;;48.50;22.77;;;;;;;5.84;58.01;102470.22;682923;28;1167;-95
2022/03/26 01:20:08;;;;;;;50.50;23.73;;;;;;;5.84;58.24;102470.22;690859;28;1229;-95
2022/03/26 01:20:28;;;;;;;50.17;23.80;;;;;;;5.84;57.95;102462.47;695992;28;1205;-96
2022/03/26 01:20:49;;;;;;;41.58;22.95;;;;;;;5.89;57.76;102476.63;688115;28;1211;-95
2022/03/26 01:21:10;;;;;;;39.50;21.60;;;;;;;5.84;57.92;102463.34;690690;28;1277;-96
2022/03/26 01:21:39;;;;;;;38.20;22.08;;;;;;;5.84;58.06;102467.63;693192;28;1392;-95
2022/03/26 01:22:00;;;;;;;38.03;22.05;;;;;;;5.82;57.87;102464.03;690373;28;1472;-95
2022/03/26 01:22:21;;;;;;;38.97;22.92;;;;;;;5.81;57.99;102468.31;685280;28;1259;-96
2022/03/26 01:22:41;;;;;;;44.42;23.35;;;;;;;5.84;57.85;102472.81;688023;28;1340;-96
2022/03/26 01:23:02;;;;;;;46.03;22.87;;;;;;;5.79;57.89;102458.63;690653;28;1390;-96
2022/03/26 01:23:23;;;;;;;47.17;22.30;;;;;;;5.79;57.90;102459.53;690811;28;1254;-96
2022/03/26 01:23:44;;;;;;;47.30;22.67;;;;;;;5.85;57.78;102479.81;687925;28;1319;-96
2022/03/26 01:24:05;;;;;;;44.58;23.23;;;;;;;5.84;58.00;102472.81;682820;29;1252;-95
2022/03/26 01:24:26;;;;;;;48.17;24.27;;;;;;;5.87;57.93;102478.22;687338;28;1178;-96
2022/03/26 01:24:46;;;;;;;43.70;23.50;;;;;;;5.80;58.03;102465.59;690246;28;1261;-95
2022/03/26 01:25:08;;;;;;;41.72;23.02;;;;;;;5.71;57.87;102451.16;690939;28;1191;-95
2022/03/26 01:25:28;;;;;;;37.63;22.60;;;;;;;5.78;58.26;102468.09;690828;28;1733;-96
2022/03/26 01:25:49;;;;;;;38.72;22.83;;;;;;;5.79;58.05;102474.16;688615;28;1227;-96
2022/03/26 01:26:10;;;;;;;39.38;23.08;;;;;;;5.77;58.19;102474.03;693586;28;1339;-96
2022/03/26 01:26:30;;;;;;;42.20;23.30;;;;;;;5.78;58.00;102462.91;685455;28;1185;-95
2022/03/26 01:26:51;;;;;;;42.60;23.00;;;;;;;5.75;58.17;102465.25;690668;28;1203;-94
2022/03/26 01:27:12;;;;;;;43.08;22.80;;;;;;;5.78;58.29;102462.00;692940;28;1251;-96
2022/03/26 01:27:32;;;;;;;39.95;21.88;;;;;;;5.77;58.33;102460.19;688452;28;1168;-95
2022/03/26 01:27:53;;;;;;;41.60;22.13;;;;;;;5.74;58.06;102459.19;688530;28;1250;-95
2022/03/26 01:28:14;;;;;;;40.60;21.92;;;;;;;5.83;58.17;102471.03;693761;28;1262;-95
2022/03/26 01:28:35;;;;;;;39.45;22.40;;;;;;;5.80;58.46;102476.88;690794;28;1412;-95
2022/03/26 01:28:55;;;;;;;40.53;22.58;;;;;;;5.74;58.43;102461.78;685213;28;1279;-95
2022/03/26 01:29:16;;;;;;;42.38;23.23;;;;;;;5.78;58.25;102465.50;687613;28;1157;-96
2022/03/26 01:29:38;;;;;;;43.83;22.98;;;;;;;5.78;58.47;102467.19;687781;28;1201;-95
2022/03/26 01:29:59;;;;;;;42.33;22.33;;;;;;;5.75;58.18;102463.56;693546;28;1289;-95
2022/03/26 01:30:20;;;;;;;41.83;21.90;;;;;;;5.84;58.56;102478.00;685398;28;1213;-95
2022/03/26 01:30:41;;;;;;;41.07;21.70;;;;;;;5.78;58.17;102464.59;688241;28;1186;-96
2022/03/26 01:31:02;;;;;;;39.88;21.75;;;;;;;5.80;58.45;102466.50;698987;28;1228;-95
2022/03/26 01:31:23;;;;;;;38.25;21.80;;;;;;;5.79;58.27;102467.31;693564;28;1227;-96
2022/03/26 01:31:43;;;;;;;38.22;22.48;;;;;;;5.85;58.51;102482.41;688037;28;1224;-96
2022/03/26 01:32:09;;;;;;;38.15;22.80;;;;;;;5.74;58.33;102460.84;688057;28;1276;-96
2022/03/26 01:32:29;;;;;;;37.42;21.98;;;;;;;5.74;58.39;102456.59;690864;28;1255;-95
2022/03/26 01:32:50;;;;;;;39.93;21.47;;;;;;;5.78;58.21;102462.00;689152;28;1220;-96
2022/03/26 01:33:11;;;;;;;41.55;21.20;;;;;;;5.75;58.42;102462.66;693437;28;1267;-95
2022/03/26 01:33:32;;;;;;;42.60;21.30;;;;;;;5.69;58.46;102452.75;687350;28;1311;-95
2022/03/26 01:33:52;;;;;;;44.63;21.92;;;;;;;5.80;58.58;102473.38;689763;28;1282;-96
2022/03/26 01:34:13;;;;;;;44.42;22.73;;;;;;;5.73;58.27;102461.66;687741;28;1406;-95
2022/03/26 01:34:34;;;;;;;42.83;22.40;;;;;;;5.74;58.59;102461.78;687257;28;1208;-95
2022/03/26 01:34:55;;;;;;;38.55;21.70;;;;;;;5.75;58.54;102466.16;684467;28;1403;-95
2022/03/26 01:35:16;;;;;;;45.25;22.20;;;;;;;5.73;58.62;102459.97;682785;29;1166;-95
2022/03/26 01:35:36;;;;;;;43.93;22.40;;;;;;;5.74;58.29;102459.19;687850;28;1270;-96
2022/03/26 01:35:57;;;;;;;44.53;22.30;;;;;;;5.72;58.27;102467.63;685498;28;1284;-95
2022/03/26 01:36:24;;;;;;;40.37;21.63;;;;;;;5.72;58.58;102468.50;685659;28;1149;-95
2022/03/26 01:36:45;;;;;;;43.95;22.35;;;;;;;5.65;58.42;102455.88;682646;29;1346;-95
2022/03/26 01:37:12;;;;;;;44.92;22.55;;;;;;;5.68;58.66;102461.31;685284;28;1235;-95
2022/03/26 01:37:32;;;;;;;43.97;21.92;;;;;;;5.70;58.71;102466.63;682550;28;1397;-95
2022/03/26 01:37:53;;;;;;;41.13;21.67;;;;;;;5.68;58.69;102465.56;687093;28;1131;-95
2022/03/26 01:38:14;;;;;;;40.23;21.10;;;;;;;5.70;58.47;102467.50;684141;28;1164;-96
2022/03/26 01:38:35;;;;;;;40.55;21.33;;;;;;;5.69;58.79;102468.28;684730;28;1286;-95
2022/03/26 01:38:55;;;;;;;40.20;21.77;;;;;;;5.69;58.36;102467.38;685521;28;1891;-96
2022/03/26 01:39:17;;;;;;;39.80;21.60;;;;;;;5.61;58.41;102449.56;685504;28;1140;-96
2022/03/26 01:39:37;;;;;;;38.72;21.50;;;;;;;5.60;58.64;102452.94;687825;28;1463;-94
2022/03/26 01:39:58;;;;;;;39.40;20.98;;;;;;;5.66;58.30;102467.16;690282;28;1341;-94
2022/03/26 01:40:19;;;;;;;41.30;21.00;;;;;;;5.69;58.64;102465.69;693588;28;1272;-96
2022/03/26 01:40:39;;;;;;;41.00;20.90;;;;;;;5.63;58.77;102457.47;685460;28;1247;-96
2022/03/26 01:41:00;;;;;;;41.05;20.65;;;;;;;5.66;58.41;102462.91;688084;28;1209;-96
2022/03/26 01:41:20;;;;;;;40.28;21.15;;;;;;;5.64;58.46;102458.38;685349;28;1184;-95